Aviation Digital Data Service (ADDS)

Output produced by TAFs form (2108 UTC 21 October 2017)
found at http://aviationweather.gov/adds/tafs/
 
KELP 211720Z 2118/2218 28016G23KT P6SM FEW060 SCT250 
     FM220000 33010KT P6SM FEW250 
     FM221200 02006KT P6SM SKC